• Join FlightAware (Why Join?)
  • Login
  • US Flag 
12:58PM EDT


 

Airport Tracker/Info


-or-


 

Live Flight TrackerFlight Track Log ✈ KAP16 ✈ 31-Jul-2013 ✈ KSTL - KUIN

Flight Track Log - Related Links

Times and Time Zones

All times are in EDT time to prevent confusion due to time zone crossing. See the KAP16 flight status page for this flight to view local times or setup timezone preferences in your user account.

Time Position Orientation Groundspeed Altitude Reporting Facility
EDT Latitude Longitude Course Direction KTS MPH feet Rate Location/Type
03:03PM 38.7667 -90.3667 21° North 112 129 1,300  Level Gateway (St. Louis) TRACON
03:04PM 38.8000 -90.3500 21° North 135 155 2,100 720 Climbing Gateway (St. Louis) TRACON
03:05PM 38.8333 -90.3500 360° North 143 165 2,700 480 Climbing Gateway (St. Louis) TRACON
03:06PM 38.8614 -90.3411 14° North 139 160 3,100 420 Climbing Kansas City Center
03:07PM 38.9078 -90.3425 359° North 139 160 3,600 420 Climbing Kansas City Center
03:08PM 38.9481 -90.3403 North 141 162 4,000 360 Climbing Kansas City Center
03:09PM 38.9894 -90.3392 North 145 167 4,400 360 Climbing Kansas City Center
03:10PM 39.0231 -90.3550 340° North 140 161 4,800 420 Climbing Kansas City Center
03:11PM 39.0550 -90.3822 327° Northwest 137 158 5,300 420 Climbing Kansas City Center
03:12PM 39.0856 -90.4106 324° Northwest 136 157 5,700 360 Climbing Kansas City Center
03:13PM 39.1231 -90.4444 325° Northwest 137 158 6,100 180 Climbing Kansas City Center
03:14PM 39.1578 -90.4767 324° Northwest 149 171 6,100  Level Kansas City Center
03:15PM 39.1956 -90.5108 325° Northwest 161 185 6,100 -60 Level Kansas City Center
03:16PM 39.2333 -90.5447 325° Northwest 164 189 6,000 -60 Descending Kansas City Center
03:17PM 39.2683 -90.5772 324° Northwest 159 183 6,000  Level Kansas City Center
03:18PM 39.3097 -90.6142 325° Northwest 152 175 6,000  Level Kansas City Center
03:19PM 39.3436 -90.6458 324° Northwest 150 173 6,000  Level Kansas City Center
03:20PM 39.3783 -90.6778 325° Northwest 153 176 6,000  Level Kansas City Center
03:21PM 39.4133 -90.7081 326° Northwest 151 174 6,000  Level Kansas City Center
03:22PM 39.4483 -90.7417 323° Northwest 155 178 6,000  Level Kansas City Center
03:23PM 39.4833 -90.7747 324° Northwest 155 178 6,000  Level Kansas City Center
03:24PM 39.5239 -90.8100 326° Northwest 148 170 6,000  Level Kansas City Center
03:26PM 39.5592 -90.8422 325° Northwest 152 175 6,000  Level Kansas City Center
03:27PM 39.5922 -90.8731 324° Northwest 148 170 6,000  Level Kansas City Center
03:28PM 39.6269 -90.9042 325° Northwest 150 173 6,000 -120 Level Kansas City Center
03:29PM 39.6617 -90.9367 324° Northwest 153 176 5,800 -360 Descending Kansas City Center
03:30PM 39.6967 -90.9678 326° Northwest 153 176 5,300 -540 Descending Kansas City Center
03:31PM 39.7381 -91.0069 324° Northwest 153 176 4,800 -540 Descending Kansas City Center
03:32PM 39.7742 -91.0411 324° Northwest 152 175 4,300 -480 Descending Kansas City Center
03:33PM 39.8089 -91.0722 325° Northwest 152 175 3,900 -600 Descending Kansas City Center
03:34PM 39.8436 -91.1081 322° Northwest 150 173 3,100 -840 Descending Kansas City Center